Alumine, Argentina
Current Conditions -  °F | °C
As of 3:00 AM on Wednesday 22 Oct 2014 (Local Time) from SCQP Reporting Station
Overcast Overcast  
Wind Chill: 13°   Ceiling: 900
Heat Index: 13°   Visibility: 6mi
Dew Point: 12°   Wind: 2mph
Humidity: 94%   Direction: NA
Pressure: 30.06"   Gusts: NA
Location:  39.22°S, 70.95°W
Report Text: SCQP 220600Z VRB02KT 9999 SCT007 OVC009 13/12 Q1018
Loading
Personal Weather Stations






























Interactive Weather Map
Tropical Storm Tracking
New forecast layout! Learn more

10-Day Weather Forecast

Advertisements
Track Severe Weather on mobile